createdAt,value
2022-09-21T00:01:32.008Z,90.50
2022-09-21T00:04:03.396Z,92.70
2022-09-21T00:06:34.270Z,90.00
2022-09-21T00:09:03.865Z,91.10
2022-09-21T00:11:33.362Z,91.80
2022-09-21T00:14:05.408Z,92.80
2022-09-21T00:16:34.117Z,93.10
2022-09-21T00:19:03.715Z,93.60
2022-09-21T00:21:31.834Z,94.20
2022-09-21T00:24:00.545Z,90.80
2022-09-21T00:26:29.552Z,90.50
2022-09-21T00:28:59.432Z,91.00
2022-09-21T00:31:28.310Z,90.80
2022-09-21T00:33:56.375Z,87.70
2022-09-21T00:36:27.065Z,96.70
2022-09-21T00:38:57.484Z,88.80
2022-09-21T00:41:26.864Z,90.80
2022-09-21T00:44:28.829Z,85.70
2022-09-21T00:46:59.480Z,80.90
2022-09-21T00:49:28.877Z,82.60
2022-09-21T00:52:00.271Z,78.90
2022-09-21T00:54:33.593Z,85.90
2022-09-21T00:57:02.841Z,86.90
2022-09-21T00:59:33.440Z,87.40
2022-09-21T01:02:01.691Z,89.00
2022-09-21T01:04:30.226Z,87.80
2022-09-21T01:07:04.027Z,85.60
2022-09-21T01:09:32.245Z,80.80
2022-09-21T01:12:11.989Z,86.20
2022-09-21T01:14:54.448Z,85.20
2022-09-21T01:17:34.795Z,76.70
2022-09-21T01:20:34.690Z,81.70
2022-09-21T01:23:31.709Z,77.10
2022-09-21T01:26:08.897Z,80.40
2022-09-21T01:29:16.869Z,78.00
2022-09-21T01:31:51.832Z,85.10
2022-09-21T01:34:27.469Z,97.10
2022-09-21T01:36:57.884Z,85.10
2022-09-21T01:39:27.454Z,80.60
2022-09-21T01:41:57.269Z,79.80
2022-09-21T01:44:28.793Z,85.00
2022-09-21T01:47:00.081Z,82.40
2022-09-21T01:49:34.402Z,85.40
2022-09-21T01:52:10.187Z,85.40
2022-09-21T01:54:42.531Z,85.90
2022-09-21T01:57:15.961Z,84.10
2022-09-21T01:59:50.197Z,83.30
2022-09-21T02:02:23.407Z,79.30
2022-09-21T02:04:51.650Z,81.40
2022-09-21T02:07:20.130Z,77.50
2022-09-21T02:09:49.025Z,81.10
2022-09-21T02:12:19.111Z,75.60
2022-09-21T02:14:47.766Z,73.30
2022-09-21T02:17:28.562Z,76.90
2022-09-21T02:20:03.816Z,91.50
2022-09-21T02:22:37.957Z,76.60
2022-09-21T02:25:11.816Z,77.80
2022-09-21T02:27:46.838Z,76.20
2022-09-21T02:30:17.414Z,77.90
2022-09-21T02:32:53.849Z,77.60
2022-09-21T02:35:30.134Z,73.90
2022-09-21T02:38:06.723Z,77.30
2022-09-21T02:40:40.933Z,80.10
2022-09-21T02:43:14.028Z,82.30
2022-09-21T02:45:45.706Z,89.50
2022-09-21T02:48:19.453Z,90.10
2022-09-21T02:50:49.982Z,83.30
2022-09-21T02:53:25.011Z,80.30
2022-09-21T02:55:56.458Z,83.20
2022-09-21T02:58:27.710Z,82.70
2022-09-21T03:00:57.111Z,84.60
2022-09-21T03:03:26.569Z,70.70
2022-09-21T03:05:56.304Z,86.10
2022-09-21T03:08:24.266Z,87.00
2022-09-21T03:10:52.388Z,79.20
2022-09-21T03:13:20.348Z,81.80
2022-09-21T03:15:48.965Z,76.40
2022-09-21T03:18:16.974Z,77.80
2022-09-21T03:20:47.138Z,79.30
2022-09-21T03:23:15.443Z,82.10
2022-09-21T03:25:45.392Z,82.70
2022-09-21T03:28:13.840Z,76.80
2022-09-21T03:30:41.945Z,78.40
2022-09-21T03:33:10.151Z,69.90
2022-09-21T03:35:38.125Z,87.60
2022-09-21T03:38:08.136Z,77.90
2022-09-21T03:40:36.143Z,81.90
2022-09-21T03:43:04.569Z,83.80
2022-09-21T03:45:32.449Z,87.20
2022-09-21T03:48:02.382Z,87.60
2022-09-21T03:50:30.665Z,85.50
2022-09-21T03:52:58.825Z,88.10
2022-09-21T03:55:29.773Z,89.80
2022-09-21T03:57:57.684Z,90.00
2022-09-21T04:00:25.701Z,92.60
2022-09-21T04:02:53.853Z,85.20
2022-09-21T04:05:21.917Z,87.70
2022-09-21T04:07:50.066Z,88.80
2022-09-21T04:10:19.946Z,85.80
2022-09-21T04:12:49.407Z,87.10
2022-09-21T04:15:20.046Z,85.10
2022-09-21T04:17:51.574Z,84.90
2022-09-21T04:20:19.917Z,88.40
2022-09-21T04:22:48.200Z,90.00
2022-09-21T04:25:16.456Z,90.50
2022-09-21T04:27:44.596Z,93.00
2022-09-21T04:30:16.080Z,96.80
2022-09-21T04:32:44.271Z,86.40
2022-09-21T04:35:12.330Z,88.10
2022-09-21T04:37:40.359Z,87.30
2022-09-21T04:40:09.416Z,96.10
2022-09-21T04:42:37.385Z,84.70
2022-09-21T04:45:05.898Z,85.80
2022-09-21T04:47:35.182Z,86.70
2022-09-21T04:50:03.120Z,96.10
2022-09-21T04:52:32.634Z,83.90
2022-09-21T04:55:00.990Z,81.60
2022-09-21T04:57:28.955Z,81.90
2022-09-21T04:59:56.946Z,92.70
2022-09-21T05:02:24.871Z,79.60
2022-09-21T05:04:54.205Z,82.10
2022-09-21T05:07:22.147Z,81.40
2022-09-21T05:10:04.000Z,94.10
2022-09-21T05:12:32.046Z,78.20
2022-09-21T05:15:00.353Z,83.30
2022-09-21T05:17:28.380Z,87.90
2022-09-21T05:19:57.915Z,87.40
2022-09-21T05:22:25.842Z,80.20
2022-09-21T05:24:53.761Z,92.00
2022-09-21T05:27:21.690Z,81.50
2022-09-21T05:29:50.148Z,79.20
2022-09-21T05:32:24.961Z,77.50
2022-09-21T05:35:06.513Z,80.90
2022-09-21T05:37:49.910Z,80.90
2022-09-21T05:40:18.662Z,83.40
2022-09-21T05:42:47.236Z,85.00
2022-09-21T05:45:17.951Z,87.40
2022-09-21T05:50:46.260Z,87.50
2022-09-21T05:53:35.090Z,89.90
2022-09-21T05:56:08.045Z,86.90
2022-09-21T05:58:43.520Z,85.90
2022-09-21T06:01:25.982Z,88.20
2022-09-21T06:03:55.129Z,86.60
2022-09-21T06:06:24.387Z,83.70
2022-09-21T06:08:52.363Z,85.10
2022-09-21T06:11:20.651Z,85.00
2022-09-21T06:13:48.524Z,84.80
2022-09-21T06:16:16.475Z,84.70
2022-09-21T06:18:44.396Z,83.50
2022-09-21T06:21:12.507Z,85.40
2022-09-21T06:23:41.746Z,87.60
2022-09-21T06:26:09.615Z,79.40
2022-09-21T06:28:37.542Z,79.70
2022-09-21T06:31:05.768Z,80.10
2022-09-21T06:33:35.688Z,81.80
2022-09-21T06:36:03.881Z,79.60
2022-09-21T06:38:31.844Z,82.70
2022-09-21T06:41:05.375Z,81.60
2022-09-21T06:43:33.694Z,82.40
2022-09-21T06:46:02.997Z,87.40
2022-09-21T06:48:33.415Z,82.40
2022-09-21T06:51:02.273Z,81.50
2022-09-21T06:53:31.386Z,85.50
2022-09-21T06:56:04.205Z,87.30
2022-09-21T06:58:34.214Z,81.90
2022-09-21T07:01:07.382Z,92.50
2022-09-21T07:03:35.799Z,83.00
2022-09-21T07:06:03.808Z,81.70
2022-09-21T07:11:22.010Z,82.10
2022-09-21T07:13:50.001Z,84.00
2022-09-21T07:16:18.270Z,83.20
2022-09-21T07:18:46.957Z,86.90
2022-09-21T07:21:14.912Z,84.00
2022-09-21T07:23:42.978Z,85.10
2022-09-21T07:26:12.377Z,91.20
2022-09-21T07:28:42.047Z,81.00
2022-09-21T07:31:11.571Z,80.00
2022-09-21T07:33:39.650Z,81.80
2022-09-21T07:36:11.208Z,80.80
2022-09-21T07:38:40.358Z,81.40
2022-09-21T07:41:09.018Z,69.40
2022-09-21T07:43:39.248Z,72.00
2022-09-21T07:46:09.467Z,79.70
2022-09-21T07:48:37.630Z,78.60
2022-09-21T07:51:07.312Z,79.90
2022-09-21T07:53:35.561Z,78.40
2022-09-21T07:56:04.446Z,80.30
2022-09-21T07:58:50.323Z,68.50
2022-09-21T08:01:19.635Z,66.90
2022-09-21T08:03:50.188Z,68.90
2022-09-21T08:06:18.262Z,78.60
2022-09-21T08:08:48.192Z,71.10
2022-09-21T08:11:17.014Z,61.90
2022-09-21T08:16:13.268Z,67.60
2022-09-21T08:18:43.640Z,71.60
2022-09-21T08:21:13.793Z,73.30
2022-09-21T08:23:42.736Z,67.50
2022-09-21T08:26:16.393Z,74.80
2022-09-21T08:28:44.445Z,73.50
2022-09-21T08:31:12.401Z,70.90
2022-09-21T08:33:40.297Z,74.30
2022-09-21T08:36:10.098Z,59.50
2022-09-21T08:38:39.610Z,69.80
2022-09-21T08:41:17.368Z,70.70
2022-09-21T08:43:48.868Z,71.10
2022-09-21T08:46:19.409Z,68.50
2022-09-21T08:48:51.037Z,67.60
2022-09-21T08:51:23.935Z,71.80
2022-09-21T08:53:54.737Z,64.30
2022-09-21T08:56:32.980Z,63.20
2022-09-21T08:59:15.385Z,63.10
2022-09-21T09:01:58.651Z,62.60
2022-09-21T09:04:47.406Z,68.40
2022-09-21T09:07:28.001Z,57.50
2022-09-21T09:10:16.018Z,58.90
2022-09-21T09:12:55.348Z,62.90
2022-09-21T09:15:46.355Z,63.00
2022-09-21T09:18:23.826Z,62.80
2022-09-21T09:20:58.100Z,57.00
2022-09-21T09:23:30.660Z,52.10
2022-09-21T09:26:03.795Z,55.00
2022-09-21T09:28:37.218Z,44.40
2022-09-21T09:31:11.880Z,44.70
2022-09-21T09:33:54.973Z,55.00
2022-09-21T09:36:46.654Z,56.10
2022-09-21T09:39:17.362Z,51.40
2022-09-21T09:42:05.743Z,52.70
2022-09-21T09:44:57.600Z,52.70
2022-09-21T09:47:43.271Z,54.80
2022-09-21T09:50:14.368Z,37.50
2022-09-21T09:55:20.936Z,42.70
2022-09-21T09:57:50.228Z,63.30
2022-09-21T10:00:21.042Z,41.10
2022-09-21T10:02:50.925Z,36.20
2022-09-21T10:05:24.420Z,39.10
2022-09-21T10:07:53.501Z,57.30
2022-09-21T10:10:34.112Z,39.80
2022-09-21T10:13:16.858Z,41.20
2022-09-21T10:15:49.739Z,41.70
2022-09-21T10:18:21.398Z,41.30
2022-09-21T10:20:57.688Z,35.10
2022-09-21T10:23:26.446Z,37.20
2022-09-21T10:25:58.942Z,38.80
2022-09-21T10:28:28.355Z,37.50
2022-09-21T10:31:19.105Z,36.10
2022-09-21T10:33:53.103Z,38.30
2022-09-21T10:36:33.324Z,41.90
2022-09-21T10:39:20.090Z,34.80
2022-09-21T10:41:55.980Z,41.30
2022-09-21T10:44:27.797Z,41.70
2022-09-21T10:49:27.702Z,31.20
2022-09-21T10:51:58.856Z,26.80
2022-09-21T10:54:30.496Z,24.70
2022-09-21T10:57:02.932Z,25.80
2022-09-21T10:59:33.011Z,25.60
2022-09-21T11:02:02.846Z,27.20
2022-09-21T11:04:43.443Z,26.60
2022-09-21T11:07:19.655Z,28.60
2022-09-21T11:09:54.357Z,30.80
2022-09-21T11:12:36.793Z,32.20
2022-09-21T11:15:19.117Z,35.10
2022-09-21T11:17:52.234Z,48.30
2022-09-21T11:20:27.699Z,33.30
2022-09-21T11:23:04.261Z,35.80
2022-09-21T11:25:43.643Z,35.80
2022-09-21T11:28:19.495Z,29.10
2022-09-21T11:31:04.437Z,27.90
2022-09-21T11:33:49.492Z,32.00
2022-09-21T11:36:25.225Z,31.70
2022-09-21T11:39:01.155Z,31.00
2022-09-21T11:41:51.718Z,30.40
2022-09-21T11:44:52.968Z,30.40
2022-09-21T11:47:37.550Z,29.50
2022-09-21T11:50:30.710Z,28.40
2022-09-21T11:53:12.955Z,28.60
2022-09-21T11:55:56.211Z,27.80
2022-09-21T11:58:31.387Z,25.90
2022-09-21T12:01:12.059Z,27.20
2022-09-21T12:03:56.897Z,26.40
2022-09-21T12:06:46.247Z,27.70
2022-09-21T12:09:33.805Z,24.60
2022-09-21T12:12:08.332Z,26.30
2022-09-21T12:14:43.674Z,24.30
2022-09-21T12:17:17.985Z,24.00
2022-09-21T12:19:50.994Z,24.80
2022-09-21T12:22:23.615Z,26.00
2022-09-21T12:24:55.564Z,27.10
2022-09-21T12:27:29.404Z,29.30
2022-09-21T12:30:03.007Z,26.70
2022-09-21T12:32:47.365Z,27.30
2022-09-21T12:35:18.790Z,27.20
2022-09-21T12:37:50.498Z,43.30
2022-09-21T12:40:25.101Z,26.10
2022-09-21T12:42:59.645Z,27.60
2022-09-21T12:45:31.077Z,27.00
2022-09-21T12:48:08.480Z,23.80
2022-09-21T12:50:41.797Z,26.20
2022-09-21T12:53:16.887Z,24.40
2022-09-21T12:55:54.133Z,25.40
2022-09-21T12:58:40.640Z,22.70
2022-09-21T13:01:20.693Z,21.20
2022-09-21T13:04:02.751Z,24.40
2022-09-21T13:06:56.489Z,24.50
2022-09-21T13:09:25.588Z,22.60
2022-09-21T13:11:57.172Z,22.90
2022-09-21T13:14:28.335Z,21.70
2022-09-21T13:16:58.668Z,23.40
2022-09-21T13:19:31.917Z,21.30
2022-09-21T13:22:18.987Z,21.20
2022-09-21T13:25:03.152Z,22.30
2022-09-21T13:28:04.235Z,21.60
2022-09-21T13:30:36.004Z,18.20
2022-09-21T13:33:06.783Z,20.60
2022-09-21T13:36:04.674Z,18.90
2022-09-21T13:38:37.348Z,19.40
2022-09-21T13:41:35.527Z,19.80
2022-09-21T13:44:42.271Z,20.90
2022-09-21T13:47:11.316Z,21.80
2022-09-21T13:49:46.908Z,20.50
2022-09-21T13:52:28.329Z,22.40
2022-09-21T13:54:59.236Z,18.60
2022-09-21T13:57:33.184Z,18.50
2022-09-21T14:00:20.882Z,12.00
2022-09-21T14:02:57.220Z,13.10
2022-09-21T14:05:31.322Z,12.50
2022-09-21T14:08:03.381Z,27.30
2022-09-21T14:10:35.711Z,7.30
2022-09-21T14:13:07.842Z,10.50
2022-09-21T14:15:40.826Z,19.50
2022-09-21T14:18:38.764Z,15.30
2022-09-21T14:21:17.589Z,20.50
2022-09-21T14:24:19.725Z,9.70
2022-09-21T14:26:54.044Z,11.10
2022-09-21T14:29:25.336Z,12.70
2022-09-21T14:31:56.806Z,14.30
2022-09-21T14:34:27.436Z,12.30
2022-09-21T14:36:59.687Z,17.40
2022-09-21T14:39:32.751Z,15.40
2022-09-21T14:42:08.391Z,8.90
2022-09-21T14:44:37.269Z,11.90
2022-09-21T14:47:20.835Z,11.20
2022-09-21T14:50:07.497Z,11.10
2022-09-21T14:52:45.381Z,14.00
2022-09-21T14:55:21.335Z,6.60
2022-09-21T14:58:19.038Z,16.30
2022-09-21T15:00:49.800Z,1.00
2022-09-21T15:03:42.230Z,1.00
2022-09-21T15:06:38.024Z,1.00
2022-09-21T15:09:41.354Z,4.30
2022-09-21T15:12:16.408Z,5.90
2022-09-21T15:14:47.807Z,7.60
2022-09-21T15:17:26.155Z,7.00
2022-09-21T15:20:00.758Z,2.60
2022-09-21T15:22:29.316Z,3.60
2022-09-21T15:24:59.157Z,4.70
2022-09-21T15:27:33.351Z,3.90
2022-09-21T15:30:05.968Z,2.80
2022-09-21T15:32:41.369Z,4.00
2022-09-21T15:35:19.214Z,3.80
2022-09-21T15:37:47.678Z,23.70
2022-09-21T15:40:19.881Z,8.20
2022-09-21T15:43:04.423Z,9.60
2022-09-21T15:45:51.810Z,10.70
2022-09-21T15:48:20.603Z,12.30
2022-09-21T15:50:53.240Z,12.00
2022-09-21T15:53:26.151Z,13.40
2022-09-21T15:55:54.513Z,13.00
2022-09-21T15:58:37.198Z,15.00
2022-09-21T16:01:11.561Z,16.70
2022-09-21T16:03:40.967Z,15.10
2022-09-21T16:06:25.186Z,16.30
2022-09-21T16:08:53.799Z,16.00
2022-09-21T16:11:35.699Z,17.80
2022-09-21T16:14:28.877Z,17.60
2022-09-21T16:17:23.946Z,19.10
2022-09-21T16:20:17.361Z,17.10
2022-09-21T16:22:47.428Z,17.90
2022-09-21T16:25:24.702Z,18.50
2022-09-21T16:27:55.485Z,33.20
2022-09-21T16:30:46.133Z,18.70
2022-09-21T16:33:36.866Z,17.50
2022-09-21T16:36:05.887Z,15.10
2022-09-21T16:38:33.809Z,18.80
2022-09-21T16:41:03.376Z,20.10
2022-09-21T16:43:31.285Z,20.10
2022-09-21T16:46:02.168Z,20.00
2022-09-21T16:48:30.077Z,18.40
2022-09-21T16:50:57.976Z,18.80
2022-09-21T16:53:26.170Z,22.10
2022-09-21T16:55:54.745Z,18.80
2022-09-21T16:58:23.575Z,20.30
2022-09-21T17:00:56.171Z,22.00
2022-09-21T17:03:28.067Z,23.00
2022-09-21T17:05:57.264Z,21.40
2022-09-21T17:08:26.383Z,21.10
2022-09-21T17:10:54.803Z,21.80
2022-09-21T17:13:22.709Z,22.30
2022-09-21T17:15:51.391Z,21.50
2022-09-21T17:18:19.348Z,24.60
2022-09-21T17:20:49.434Z,26.60
2022-09-21T17:23:17.404Z,31.10
2022-09-21T17:25:45.659Z,35.30
2022-09-21T17:28:15.948Z,38.60
2022-09-21T17:30:45.478Z,39.80
2022-09-21T17:33:13.683Z,40.80
2022-09-21T17:35:42.597Z,46.10
2022-09-21T17:38:14.586Z,44.60
2022-09-21T17:40:43.577Z,45.60
2022-09-21T17:43:25.927Z,44.20
2022-09-21T17:46:03.543Z,45.90
2022-09-21T17:48:34.228Z,67.60
2022-09-21T17:51:02.911Z,47.50
2022-09-21T17:56:16.046Z,49.20
2022-09-21T17:58:49.885Z,54.80
2022-09-21T18:01:30.912Z,55.60
2022-09-21T18:03:59.318Z,55.50
2022-09-21T18:06:27.767Z,53.00
2022-09-21T18:08:57.876Z,76.80
2022-09-21T18:11:51.015Z,56.20
2022-09-21T18:14:29.720Z,58.80
2022-09-21T18:17:12.621Z,59.30
2022-09-21T18:19:50.467Z,61.60
2022-09-21T18:22:25.938Z,63.30
2022-09-21T18:24:56.580Z,63.60
2022-09-21T18:27:25.078Z,63.80
2022-09-21T18:29:53.678Z,63.70
2022-09-21T18:32:32.284Z,64.30
2022-09-21T18:35:15.650Z,65.70
2022-09-21T18:37:54.371Z,82.30
2022-09-21T18:40:39.760Z,65.80
2022-09-21T18:43:22.646Z,65.90
2022-09-21T18:45:56.610Z,65.70
2022-09-21T18:48:40.972Z,63.30
2022-09-21T18:51:18.327Z,60.60
2022-09-21T18:53:48.602Z,65.90
2022-09-21T18:56:18.649Z,66.80
2022-09-21T18:58:47.191Z,66.90
2022-09-21T19:01:17.021Z,67.70
2022-09-21T19:03:45.778Z,69.20
2022-09-21T19:06:27.335Z,68.90
2022-09-21T19:09:03.659Z,69.30
2022-09-21T19:11:42.953Z,69.30
2022-09-21T19:14:19.136Z,69.20
2022-09-21T19:16:57.295Z,69.20
2022-09-21T19:19:35.168Z,69.00
2022-09-21T19:22:10.765Z,71.00
2022-09-21T19:24:45.251Z,72.10
2022-09-21T19:27:23.059Z,72.40
2022-09-21T19:30:01.577Z,72.30
2022-09-21T19:32:36.397Z,72.50
2022-09-21T19:35:18.927Z,74.90
2022-09-21T19:37:48.103Z,90.90
2022-09-21T19:40:16.875Z,75.70
2022-09-21T19:43:04.622Z,74.70
2022-09-21T19:45:42.619Z,74.90
2022-09-21T19:48:14.017Z,75.70
2022-09-21T19:50:47.030Z,76.10
2022-09-21T19:53:33.634Z,74.20
2022-09-21T19:56:20.249Z,74.00
2022-09-21T19:59:18.853Z,73.60
2022-09-21T20:01:52.509Z,72.80
2022-09-21T20:04:26.081Z,73.90
2022-09-21T20:06:57.835Z,72.90
2022-09-21T20:09:30.651Z,72.60
2022-09-21T20:12:06.772Z,73.20
2022-09-21T20:14:41.744Z,73.50
2022-09-21T20:17:13.371Z,74.80
2022-09-21T20:19:49.083Z,75.00
2022-09-21T20:22:19.633Z,75.10
2022-09-21T20:24:54.609Z,75.60
2022-09-21T20:27:29.865Z,76.60
2022-09-21T20:29:59.121Z,75.00
2022-09-21T20:32:27.162Z,75.40
2022-09-21T20:42:26.688Z,74.20
2022-09-21T20:44:55.080Z,76.90
2022-09-21T20:47:24.399Z,76.70
2022-09-21T20:49:52.381Z,76.70
2022-09-21T20:52:20.344Z,77.10
2022-09-21T20:54:49.489Z,77.40
2022-09-21T20:57:17.791Z,76.90
2022-09-21T20:59:45.693Z,74.30
2022-09-21T21:02:14.960Z,75.20
2022-09-21T21:04:44.244Z,77.80
2022-09-21T21:07:12.179Z,77.00
2022-09-21T21:09:40.047Z,75.70
2022-09-21T21:12:09.368Z,77.60
2022-09-21T21:14:37.454Z,74.80
2022-09-21T21:17:06.638Z,75.60
2022-09-21T21:19:34.789Z,76.00
2022-09-21T21:22:04.123Z,77.20
2022-09-21T21:24:41.042Z,74.70
2022-09-21T21:27:12.064Z,73.50
2022-09-21T21:29:39.996Z,74.80
2022-09-21T21:32:08.346Z,75.20
2022-09-21T21:34:36.344Z,77.60
2022-09-21T21:37:06.070Z,79.50
2022-09-21T21:39:34.577Z,79.90
2022-09-21T21:42:02.516Z,78.20
2022-09-21T21:44:30.683Z,79.20
2022-09-21T21:47:10.258Z,76.90
2022-09-21T21:49:46.507Z,76.70
2022-09-21T21:52:15.806Z,78.50
2022-09-21T21:54:43.759Z,79.20
2022-09-21T21:57:12.026Z,79.80
2022-09-21T21:59:39.959Z,75.80
2022-09-21T22:02:07.935Z,75.40
2022-09-21T22:04:35.938Z,74.80
2022-09-21T22:07:04.093Z,74.20
2022-09-21T22:09:33.347Z,75.20
2022-09-21T22:12:02.050Z,75.50
2022-09-21T22:14:30.141Z,75.90
2022-09-21T22:16:59.167Z,76.30
2022-09-21T22:19:27.097Z,74.10
2022-09-21T22:21:54.987Z,74.70
2022-09-21T22:24:23.674Z,74.40
2022-09-21T22:26:53.271Z,71.30
2022-09-21T22:29:21.184Z,73.10
2022-09-21T22:31:50.832Z,74.60
2022-09-21T22:34:19.242Z,79.50
2022-09-21T22:36:47.132Z,79.20
2022-09-21T22:39:15.184Z,78.20
2022-09-21T22:41:43.865Z,78.80
2022-09-21T22:44:13.578Z,77.80
2022-09-21T22:46:41.505Z,78.40
2022-09-21T22:49:09.440Z,79.40
2022-09-21T22:51:38.047Z,79.30
2022-09-21T22:54:06.292Z,80.50
2022-09-21T22:56:34.912Z,81.20
2022-09-21T22:59:05.052Z,79.20
2022-09-21T23:01:36.298Z,79.60
2022-09-21T23:04:05.908Z,76.50
2022-09-21T23:06:35.967Z,74.80
2022-09-21T23:09:06.716Z,73.30
2022-09-21T23:11:37.347Z,72.90
2022-09-21T23:14:06.247Z,72.70
2022-09-21T23:16:35.854Z,46.80
2022-09-21T23:19:03.836Z,64.30
2022-09-21T23:21:32.225Z,64.50
2022-09-21T23:24:01.793Z,60.70
2022-09-21T23:26:31.966Z,60.30
2022-09-21T23:29:01.574Z,60.00
2022-09-21T23:31:31.364Z,62.70
2022-09-21T23:34:07.257Z,66.10
2022-09-21T23:36:36.361Z,68.00
2022-09-21T23:39:05.291Z,70.10
2022-09-21T23:41:35.639Z,72.00
2022-09-21T23:44:04.995Z,72.30
2022-09-21T23:46:34.454Z,70.50
2022-09-21T23:49:04.274Z,64.20
2022-09-21T23:51:33.446Z,64.10
2022-09-21T23:54:01.923Z,65.30
2022-09-21T23:56:30.239Z,66.00
2022-09-21T23:58:58.690Z,69.20
